TimeCST,TemperatureF,Dew PointF,Humidity,Sea Level PressureIn,VisibilityMPH,Wind Direction,Wind SpeedMPH,Gust SpeedMPH,PrecipitationIn,Events,Conditions,WindDirDegrees,DateUTC
12:15 AM,41.2,37.6,87,30.25,10.0,Calm,Calm,-,N/A,,Clear,0,2013-11-04 06:15:00
12:35 AM,42.3,37.4,83,30.26,7.0,SE,3.5,-,N/A,,Clear,140,2013-11-04 06:35:00
12:55 AM,42.4,37.8,83,30.26,10.0,Calm,Calm,-,N/A,,Clear,0,2013-11-04 06:55:00
1:15 AM,43.0,37.9,82,30.26,10.0,East,3.5,-,N/A,,Clear,100,2013-11-04 07:15:00
1:35 AM,42.8,38.3,84,30.25,10.0,East,4.6,-,N/A,,Clear,90,2013-11-04 07:35:00
1:55 AM,42.8,38.3,84,30.26,10.0,ESE,4.6,-,N/A,,Clear,120,2013-11-04 07:55:00
2:15 AM,43.5,38.7,83,30.26,7.0,ESE,5.8,-,N/A,,Clear,120,2013-11-04 08:15:00
2:35 AM,44.1,39.0,82,30.24,10.0,ESE,5.8,-,N/A,,Clear,120,2013-11-04 08:35:00
2:55 AM,43.5,38.8,84,30.23,10.0,ESE,5.8,-,N/A,,Clear,120,2013-11-04 08:55:00
3:15 AM,42.8,38.8,86,30.23,10.0,ESE,6.9,-,N/A,,Clear,120,2013-11-04 09:15:00
3:35 AM,42.1,38.7,88,30.24,10.0,ESE,5.8,-,N/A,,Clear,110,2013-11-04 09:35:00
3:55 AM,39.7,37.4,91,30.24,10.0,ESE,5.8,-,N/A,,Clear,110,2013-11-04 09:55:00
4:15 AM,40.3,37.8,91,30.25,10.0,East,4.6,-,N/A,,Clear,100,2013-11-04 10:15:00
4:35 AM,39.7,37.4,91,30.25,5.0,Calm,Calm,-,N/A,,Clear,0,2013-11-04 10:35:00
4:55 AM,41.0,37.9,89,30.26,7.0,ESE,4.6,-,N/A,,Clear,120,2013-11-04 10:55:00
5:15 AM,41.2,38.3,89,30.25,10.0,East,8.1,-,N/A,,Clear,100,2013-11-04 11:15:00
5:35 AM,42.3,38.5,86,30.27,10.0,ESE,5.8,-,N/A,,Clear,120,2013-11-04 11:35:00
5:55 AM,41.4,38.1,88,30.27,10.0,ESE,3.5,-,N/A,,Clear,120,2013-11-04 11:55:00
6:15 AM,41.4,38.7,90,30.25,10.0,East,6.9,-,N/A,,Clear,100,2013-11-04 12:15:00
6:35 AM,42.1,39.2,90,30.26,10.0,East,4.6,-,N/A,,Clear,90,2013-11-04 12:35:00
6:55 AM,41.9,39.2,90,30.28,10.0,East,3.5,-,N/A,,Clear,80,2013-11-04 12:55:00
7:15 AM,42.6,40.1,91,30.28,10.0,East,3.5,-,N/A,,Clear,90,2013-11-04 13:15:00
7:35 AM,43.2,40.3,90,30.29,10.0,Calm,Calm,-,N/A,,Clear,0,2013-11-04 13:35:00
7:55 AM,44.1,41.0,89,30.27,10.0,East,8.1,-,N/A,,Clear,100,2013-11-04 13:55:00
8:15 AM,45.7,41.0,84,30.28,10.0,SE,5.8,-,N/A,,Clear,130,2013-11-04 14:15:00
8:35 AM,46.8,42.4,85,30.29,10.0,SE,4.6,-,N/A,,Clear,140,2013-11-04 14:35:00
8:55 AM,49.8,41.7,74,30.29,2.5,SSE,8.1,-,N/A,,Haze,150,2013-11-04 14:55:00
9:15 AM,50.9,41.5,70,30.28,3.0,SSE,4.6,-,N/A,,Haze,150,2013-11-04 15:15:00
9:35 AM,51.3,41.5,69,30.28,1.8,SSE,5.8,-,N/A,,Haze,150,2013-11-04 15:35:00
9:55 AM,51.4,41.5,69,30.28,2.5,SSE,8.1,-,N/A,,Haze,150,2013-11-04 15:55:00
10:15 AM,52.2,41.9,68,30.29,1.8,SSE,6.9,-,N/A,,Haze,150,2013-11-04 16:15:00
10:35 AM,52.9,41.7,66,30.29,7.0,ESE,6.9,-,N/A,,Clear,120,2013-11-04 16:35:00
10:55 AM,53.6,41.7,64,30.28,4.0,SE,5.8,-,N/A,,Haze,140,2013-11-04 16:55:00
11:15 AM,54.9,42.3,63,30.28,7.0,SE,4.6,-,N/A,,Clear,130,2013-11-04 17:15:00
11:35 AM,55.9,42.4,61,30.27,2.5,SSE,5.8,-,N/A,,Haze,150,2013-11-04 17:35:00
11:55 AM,57.6,41.5,55,30.26,3.0,South,9.2,-,N/A,,Haze,170,2013-11-04 17:55:00
12:15 PM,57.6,40.8,54,30.25,10.0,South,9.2,-,N/A,,Clear,190,2013-11-04 18:15:00
12:35 PM,57.7,41.2,54,30.25,10.0,South,10.4,-,N/A,,Clear,180,2013-11-04 18:35:00
12:55 PM,58.1,41.0,53,30.24,4.0,South,8.1,-,N/A,,Haze,180,2013-11-04 18:55:00
1:15 PM,58.5,40.6,52,30.24,10.0,South,12.7,-,N/A,,Clear,190,2013-11-04 19:15:00
1:35 PM,59.0,40.8,51,30.24,10.0,SSW,10.4,-,N/A,,Clear,200,2013-11-04 19:35:00
1:55 PM,59.0,41.2,52,30.24,10.0,SSW,8.1,17.3,N/A,,Clear,200,2013-11-04 19:55:00
2:15 PM,59.4,41.4,51,30.24,10.0,SSW,10.4,-,N/A,,Clear,200,2013-11-04 20:15:00
2:35 PM,59.2,41.2,51,30.24,10.0,South,9.2,-,N/A,,Clear,190,2013-11-04 20:35:00
2:55 PM,59.2,41.4,52,30.25,10.0,South,10.4,-,N/A,,Clear,190,2013-11-04 20:55:00
3:15 PM,59.0,41.9,53,30.25,7.0,South,5.8,-,N/A,,Clear,190,2013-11-04 21:15:00
3:35 PM,58.6,41.9,54,30.25,3.0,South,8.1,-,N/A,,Haze,170,2013-11-04 21:35:00
3:55 PM,58.5,41.9,54,30.26,7.0,South,5.8,-,N/A,,Clear,190,2013-11-04 21:55:00
4:15 PM,58.1,42.3,56,30.26,10.0,South,9.2,-,N/A,,Mostly Cloudy,180,2013-11-04 22:15:00
4:35 PM,57.2,42.8,59,30.26,10.0,South,8.1,-,N/A,,Light Drizzle,190,2013-11-04 22:35:00
4:55 PM,57.2,42.3,57,30.25,10.0,South,9.2,-,N/A,,Scattered Clouds,190,2013-11-04 22:55:00
5:15 PM,56.8,42.4,59,30.27,10.0,South,9.2,-,N/A,,Clear,190,2013-11-04 23:15:00
5:35 PM,56.3,43.0,61,30.27,10.0,South,8.1,-,N/A,,Clear,190,2013-11-04 23:35:00
5:55 PM,55.9,43.3,63,30.27,10.0,South,6.9,-,N/A,,Clear,190,2013-11-04 23:55:00
6:15 PM,55.8,43.7,64,30.28,10.0,South,5.8,-,N/A,,Clear,190,2013-11-05 00:15:00
6:35 PM,55.6,43.9,65,30.28,10.0,SSW,6.9,-,N/A,,Scattered Clouds,200,2013-11-05 00:35:00
6:55 PM,55.4,44.2,66,30.28,10.0,South,6.9,-,N/A,,Mostly Cloudy,180,2013-11-05 00:55:00
7:15 PM,55.0,44.8,68,30.28,10.0,South,5.8,-,N/A,,Overcast,180,2013-11-05 01:15:00
7:35 PM,54.5,45.5,72,30.29,10.0,South,4.6,-,N/A,Rain,Light Rain,190,2013-11-05 01:35:00
7:55 PM,53.4,47.1,79,30.30,10.0,South,4.6,-,N/A,Rain,Light Rain,180,2013-11-05 01:55:00
8:15 PM,52.5,48.2,85,30.29,4.0,SSE,3.5,-,N/A,Rain,Light Rain,150,2013-11-05 02:15:00
8:35 PM,51.6,49.1,91,30.29,2.5,SE,4.6,-,N/A,,Light Drizzle,140,2013-11-05 02:35:00
8:55 PM,51.1,49.3,94,30.29,10.0,Calm,Calm,-,N/A,Rain,Rain,0,2013-11-05 02:55:00
9:15 PM,50.9,49.5,95,30.29,7.0,Calm,Calm,-,0.01,Rain,Light Rain,0,2013-11-05 03:15:00
9:35 PM,50.9,49.3,94,30.30,2.0,SSE,4.6,-,0.01,Rain,Light Rain,150,2013-11-05 03:35:00
9:55 PM,50.5,49.6,97,30.30,3.0,Calm,Calm,-,0.02,Rain,Light Rain,0,2013-11-05 03:55:00
10:15 PM,50.5,50.0,98,30.30,7.0,Calm,Calm,-,N/A,Rain,Rain,0,2013-11-05 04:15:00
10:35 PM,50.5,50.0,98,30.29,4.0,Calm,Calm,-,N/A,,Light Drizzle,0,2013-11-05 04:35:00
10:55 PM,50.5,50.2,99,30.30,3.0,Calm,Calm,-,N/A,,Drizzle,0,2013-11-05 04:55:00
11:15 PM,50.4,50.2,99,30.29,7.0,Calm,Calm,-,N/A,Rain,Light Rain,0,2013-11-05 05:15:00
11:35 PM,50.0,50.0,100,30.29,10.0,Calm,Calm,-,N/A,Rain,Light Rain,0,2013-11-05 05:35:00
11:55 PM,50.0,50.0,100,30.30,7.0,Calm,Calm,-,N/A,,Overcast,0,2013-11-05 05:55:00